sensor_id;sensor_type;location;lat;lon;timestamp;P1;durP1;ratioP1;P2;durP2;ratioP2
51190;SDS011;37253;48.736;9.294;2023-08-31T00:01:02;2.90;;;1.00;;
51190;SDS011;37253;48.736;9.294;2023-08-31T00:03:03;1.40;;;1.20;;
51190;SDS011;37253;48.736;9.294;2023-08-31T00:05:05;1.42;;;1.25;;
51190;SDS011;37253;48.736;9.294;2023-08-31T00:07:05;1.80;;;1.00;;
51190;SDS011;37253;48.736;9.294;2023-08-31T00:09:07;1.88;;;0.93;;
51190;SDS011;37253;48.736;9.294;2023-08-31T00:11:09;1.33;;;0.82;;
51190;SDS011;37253;48.736;9.294;2023-08-31T00:13:09;2.78;;;1.00;;
51190;SDS011;37253;48.736;9.294;2023-08-31T00:15:10;2.17;;;1.10;;
51190;SDS011;37253;48.736;9.294;2023-08-31T00:17:10;1.00;;;0.90;;
51190;SDS011;37253;48.736;9.294;2023-08-31T00:19:11;1.15;;;1.05;;
51190;SDS011;37253;48.736;9.294;2023-08-31T00:21:11;1.80;;;1.02;;
51190;SDS011;37253;48.736;9.294;2023-08-31T00:23:12;1.33;;;0.95;;
51190;SDS011;37253;48.736;9.294;2023-08-31T00:25:12;1.23;;;0.90;;
51190;SDS011;37253;48.736;9.294;2023-08-31T00:27:12;1.73;;;1.25;;
51190;SDS011;37253;48.736;9.294;2023-08-31T00:29:15;1.42;;;1.00;;
51190;SDS011;37253;48.736;9.294;2023-08-31T00:31:16;1.63;;;1.00;;
51190;SDS011;37253;48.736;9.294;2023-08-31T00:33:16;1.48;;;1.00;;
51190;SDS011;37253;48.736;9.294;2023-08-31T00:35:17;2.70;;;1.00;;
51190;SDS011;37253;48.736;9.294;2023-08-31T00:37:17;1.20;;;1.10;;
51190;SDS011;37253;48.736;9.294;2023-08-31T00:39:18;1.65;;;1.00;;
51190;SDS011;37253;48.736;9.294;2023-08-31T00:41:22;2.00;;;0.98;;
51190;SDS011;37253;48.736;9.294;2023-08-31T00:43:22;3.47;;;0.80;;
51190;SDS011;37253;48.736;9.294;2023-08-31T00:45:22;1.67;;;0.90;;
51190;SDS011;37253;48.736;9.294;2023-08-31T00:47:23;2.03;;;0.98;;
51190;SDS011;37253;48.736;9.294;2023-08-31T00:49:24;1.25;;;0.90;;
51190;SDS011;37253;48.736;9.294;2023-08-31T00:51:24;1.77;;;1.10;;
51190;SDS011;37253;48.736;9.294;2023-08-31T00:53:25;1.70;;;1.10;;
51190;SDS011;37253;48.736;9.294;2023-08-31T00:55:25;1.00;;;0.85;;
51190;SDS011;37253;48.736;9.294;2023-08-31T00:57:26;1.02;;;0.93;;
51190;SDS011;37253;48.736;9.294;2023-08-31T00:59:27;1.27;;;0.82;;
51190;SDS011;37253;48.736;9.294;2023-08-31T01:01:39;1.15;;;0.90;;
51190;SDS011;37253;48.736;9.294;2023-08-31T01:03:47;1.20;;;1.00;;
51190;SDS011;37253;48.736;9.294;2023-08-31T01:08:14;1.55;;;0.90;;
51190;SDS011;37253;48.736;9.294;2023-08-31T01:13:02;1.35;;;0.95;;
51190;SDS011;37253;48.736;9.294;2023-08-31T01:15:04;3.13;;;0.90;;
51190;SDS011;37253;48.736;9.294;2023-08-31T01:17:08;1.77;;;1.00;;
51190;SDS011;37253;48.736;9.294;2023-08-31T01:19:16;1.00;;;0.90;;
51190;SDS011;37253;48.736;9.294;2023-08-31T01:21:19;1.48;;;1.05;;
51190;SDS011;37253;48.736;9.294;2023-08-31T01:23:23;1.25;;;0.90;;
51190;SDS011;37253;48.736;9.294;2023-08-31T01:25:29;1.00;;;0.80;;
51190;SDS011;37253;48.736;9.294;2023-08-31T01:27:32;1.48;;;0.98;;
51190;SDS011;37253;48.736;9.294;2023-08-31T01:29:33;1.88;;;0.90;;
51190;SDS011;37253;48.736;9.294;2023-08-31T01:31:33;1.75;;;0.90;;
51190;SDS011;37253;48.736;9.294;2023-08-31T01:33:41;1.05;;;0.82;;
51190;SDS011;37253;48.736;9.294;2023-08-31T01:35:43;1.15;;;0.90;;
51190;SDS011;37253;48.736;9.294;2023-08-31T01:37:47;1.13;;;0.95;;
51190;SDS011;37253;48.736;9.294;2023-08-31T01:39:55;0.85;;;0.80;;
51190;SDS011;37253;48.736;9.294;2023-08-31T01:42:00;1.33;;;0.90;;
51190;SDS011;37253;48.736;9.294;2023-08-31T01:44:03;1.52;;;1.08;;
51190;SDS011;37253;48.736;9.294;2023-08-31T01:46:04;1.35;;;1.02;;
51190;SDS011;37253;48.736;9.294;2023-08-31T01:48:05;0.77;;;0.77;;
51190;SDS011;37253;48.736;9.294;2023-08-31T01:50:05;3.00;;;0.90;;
51190;SDS011;37253;48.736;9.294;2023-08-31T01:52:06;1.60;;;1.02;;
51190;SDS011;37253;48.736;9.294;2023-08-31T01:54:07;1.20;;;0.82;;
51190;SDS011;37253;48.736;9.294;2023-08-31T01:56:07;1.30;;;1.00;;
51190;SDS011;37253;48.736;9.294;2023-08-31T01:58:08;2.03;;;1.00;;
51190;SDS011;37253;48.736;9.294;2023-08-31T02:00:09;1.20;;;0.80;;
51190;SDS011;37253;48.736;9.294;2023-08-31T02:02:10;2.20;;;1.00;;
51190;SDS011;37253;48.736;9.294;2023-08-31T02:04:10;2.60;;;0.90;;
51190;SDS011;37253;48.736;9.294;2023-08-31T02:06:11;1.88;;;1.00;;
51190;SDS011;37253;48.736;9.294;2023-08-31T02:08:11;2.17;;;0.90;;
51190;SDS011;37253;48.736;9.294;2023-08-31T02:10:11;2.15;;;0.82;;
51190;SDS011;37253;48.736;9.294;2023-08-31T02:12:11;1.60;;;1.13;;
51190;SDS011;37253;48.736;9.294;2023-08-31T02:14:12;0.93;;;0.80;;
51190;SDS011;37253;48.736;9.294;2023-08-31T02:16:12;0.90;;;0.80;;
51190;SDS011;37253;48.736;9.294;2023-08-31T02:18:13;0.80;;;0.80;;
51190;SDS011;37253;48.736;9.294;2023-08-31T02:20:13;1.13;;;0.98;;
51190;SDS011;37253;48.736;9.294;2023-08-31T02:22:14;2.85;;;0.90;;
51190;SDS011;37253;48.736;9.294;2023-08-31T02:24:14;1.42;;;0.90;;
51190;SDS011;37253;48.736;9.294;2023-08-31T02:26:14;0.73;;;0.70;;
51190;SDS011;37253;48.736;9.294;2023-08-31T02:28:15;1.10;;;0.85;;
51190;SDS011;37253;48.736;9.294;2023-08-31T02:30:17;0.82;;;0.80;;
51190;SDS011;37253;48.736;9.294;2023-08-31T02:32:18;1.45;;;1.00;;
51190;SDS011;37253;48.736;9.294;2023-08-31T02:34:18;1.33;;;0.88;;
51190;SDS011;37253;48.736;9.294;2023-08-31T02:36:18;1.17;;;0.80;;
51190;SDS011;37253;48.736;9.294;2023-08-31T02:38:20;1.60;;;0.80;;
51190;SDS011;37253;48.736;9.294;2023-08-31T02:40:20;0.75;;;0.75;;
51190;SDS011;37253;48.736;9.294;2023-08-31T02:42:21;1.45;;;0.98;;
51190;SDS011;37253;48.736;9.294;2023-08-31T02:44:21;1.20;;;0.70;;
51190;SDS011;37253;48.736;9.294;2023-08-31T02:46:22;5.40;;;0.90;;
51190;SDS011;37253;48.736;9.294;2023-08-31T02:48:22;1.08;;;0.73;;
51190;SDS011;37253;48.736;9.294;2023-08-31T02:50:23;1.63;;;1.00;;
51190;SDS011;37253;48.736;9.294;2023-08-31T02:52:23;1.83;;;0.90;;
51190;SDS011;37253;48.736;9.294;2023-08-31T02:54:23;1.50;;;0.90;;
51190;SDS011;37253;48.736;9.294;2023-08-31T02:56:24;1.25;;;0.90;;
51190;SDS011;37253;48.736;9.294;2023-08-31T02:58:24;1.17;;;0.70;;
51190;SDS011;37253;48.736;9.294;2023-08-31T03:00:24;1.83;;;0.93;;
51190;SDS011;37253;48.736;9.294;2023-08-31T03:02:25;1.15;;;0.88;;
51190;SDS011;37253;48.736;9.294;2023-08-31T03:04:25;1.85;;;0.85;;
51190;SDS011;37253;48.736;9.294;2023-08-31T03:06:26;0.73;;;0.70;;
51190;SDS011;37253;48.736;9.294;2023-08-31T03:08:27;0.75;;;0.73;;
51190;SDS011;37253;48.736;9.294;2023-08-31T03:10:27;0.98;;;0.88;;
51190;SDS011;37253;48.736;9.294;2023-08-31T03:12:27;1.60;;;0.80;;
51190;SDS011;37253;48.736;9.294;2023-08-31T03:14:28;1.38;;;0.70;;
51190;SDS011;37253;48.736;9.294;2023-08-31T03:16:28;0.90;;;0.70;;
51190;SDS011;37253;48.736;9.294;2023-08-31T03:18:29;1.27;;;0.82;;
51190;SDS011;37253;48.736;9.294;2023-08-31T03:20:29;1.65;;;0.93;;
51190;SDS011;37253;48.736;9.294;2023-08-31T03:22:29;2.95;;;0.93;;
51190;SDS011;37253;48.736;9.294;2023-08-31T03:24:31;0.98;;;0.88;;
51190;SDS011;37253;48.736;9.294;2023-08-31T03:26:32;1.17;;;0.98;;
51190;SDS011;37253;48.736;9.294;2023-08-31T03:28:33;1.10;;;0.90;;
51190;SDS011;37253;48.736;9.294;2023-08-31T03:30:34;0.82;;;0.80;;
51190;SDS011;37253;48.736;9.294;2023-08-31T03:32:35;3.97;;;0.88;;
51190;SDS011;37253;48.736;9.294;2023-08-31T03:34:35;1.65;;;0.80;;
51190;SDS011;37253;48.736;9.294;2023-08-31T03:36:35;1.30;;;0.80;;
51190;SDS011;37253;48.736;9.294;2023-08-31T03:38:36;0.95;;;0.80;;
51190;SDS011;37253;48.736;9.294;2023-08-31T03:40:40;1.13;;;0.90;;
51190;SDS011;37253;48.736;9.294;2023-08-31T03:42:41;0.75;;;0.75;;
51190;SDS011;37253;48.736;9.294;2023-08-31T03:44:41;1.10;;;0.82;;
51190;SDS011;37253;48.736;9.294;2023-08-31T03:46:42;1.48;;;0.70;;
51190;SDS011;37253;48.736;9.294;2023-08-31T03:48:42;1.02;;;0.80;;
51190;SDS011;37253;48.736;9.294;2023-08-31T03:50:43;1.42;;;0.77;;
51190;SDS011;37253;48.736;9.294;2023-08-31T03:52:43;1.00;;;0.70;;
51190;SDS011;37253;48.736;9.294;2023-08-31T03:54:43;1.42;;;0.70;;
51190;SDS011;37253;48.736;9.294;2023-08-31T03:56:43;0.95;;;0.70;;
51190;SDS011;37253;48.736;9.294;2023-08-31T03:58:44;1.20;;;0.80;;
51190;SDS011;37253;48.736;9.294;2023-08-31T04:00:44;1.83;;;0.90;;
51190;SDS011;37253;48.736;9.294;2023-08-31T04:02:44;0.80;;;0.80;;
51190;SDS011;37253;48.736;9.294;2023-08-31T04:04:45;1.10;;;0.90;;
51190;SDS011;37253;48.736;9.294;2023-08-31T04:06:45;1.00;;;0.73;;
51190;SDS011;37253;48.736;9.294;2023-08-31T04:08:45;2.10;;;0.80;;
51190;SDS011;37253;48.736;9.294;2023-08-31T04:10:46;1.30;;;0.90;;
51190;SDS011;37253;48.736;9.294;2023-08-31T04:12:46;1.95;;;0.70;;
51190;SDS011;37253;48.736;9.294;2023-08-31T04:14:46;0.80;;;0.80;;
51190;SDS011;37253;48.736;9.294;2023-08-31T04:16:47;0.80;;;0.80;;
51190;SDS011;37253;48.736;9.294;2023-08-31T04:18:50;1.00;;;0.80;;
51190;SDS011;37253;48.736;9.294;2023-08-31T04:20:52;0.70;;;0.70;;
51190;SDS011;37253;48.736;9.294;2023-08-31T04:22:53;0.88;;;0.80;;
51190;SDS011;37253;48.736;9.294;2023-08-31T04:24:53;1.33;;;0.90;;
51190;SDS011;37253;48.736;9.294;2023-08-31T04:26:54;1.10;;;0.77;;
51190;SDS011;37253;48.736;9.294;2023-08-31T04:28:55;2.75;;;0.80;;
51190;SDS011;37253;48.736;9.294;2023-08-31T04:30:56;1.25;;;0.73;;
51190;SDS011;37253;48.736;9.294;2023-08-31T04:32:56;1.00;;;0.90;;
51190;SDS011;37253;48.736;9.294;2023-08-31T04:34:57;1.50;;;0.90;;
51190;SDS011;37253;48.736;9.294;2023-08-31T04:36:57;1.00;;;0.65;;
51190;SDS011;37253;48.736;9.294;2023-08-31T04:38:57;1.13;;;0.90;;
51190;SDS011;37253;48.736;9.294;2023-08-31T04:40:58;1.02;;;0.80;;
51190;SDS011;37253;48.736;9.294;2023-08-31T04:42:59;1.17;;;0.90;;
51190;SDS011;37253;48.736;9.294;2023-08-31T04:45:00;2.25;;;0.90;;
51190;SDS011;37253;48.736;9.294;2023-08-31T04:47:00;1.50;;;0.70;;
51190;SDS011;37253;48.736;9.294;2023-08-31T04:49:01;2.67;;;0.90;;
51190;SDS011;37253;48.736;9.294;2023-08-31T04:51:01;1.95;;;0.70;;
51190;SDS011;37253;48.736;9.294;2023-08-31T04:53:03;1.65;;;0.90;;
51190;SDS011;37253;48.736;9.294;2023-08-31T04:55:05;2.20;;;0.75;;
51190;SDS011;37253;48.736;9.294;2023-08-31T04:57:09;1.60;;;0.70;;
51190;SDS011;37253;48.736;9.294;2023-08-31T04:59:10;1.75;;;0.70;;
51190;SDS011;37253;48.736;9.294;2023-08-31T05:01:10;2.25;;;0.70;;
51190;SDS011;37253;48.736;9.294;2023-08-31T05:03:10;1.95;;;0.90;;
51190;SDS011;37253;48.736;9.294;2023-08-31T05:05:11;0.90;;;0.80;;
51190;SDS011;37253;48.736;9.294;2023-08-31T05:07:11;2.05;;;0.80;;
51190;SDS011;37253;48.736;9.294;2023-08-31T05:09:11;2.67;;;0.90;;
51190;SDS011;37253;48.736;9.294;2023-08-31T05:11:12;3.35;;;1.00;;
51190;SDS011;37253;48.736;9.294;2023-08-31T05:13:12;0.77;;;0.77;;
51190;SDS011;37253;48.736;9.294;2023-08-31T05:15:12;0.98;;;0.73;;
51190;SDS011;37253;48.736;9.294;2023-08-31T05:17:13;1.70;;;0.90;;
51190;SDS011;37253;48.736;9.294;2023-08-31T05:19:13;2.72;;;0.70;;
51190;SDS011;37253;48.736;9.294;2023-08-31T05:21:13;3.67;;;0.95;;
51190;SDS011;37253;48.736;9.294;2023-08-31T05:23:14;0.82;;;0.60;;
51190;SDS011;37253;48.736;9.294;2023-08-31T05:25:14;1.02;;;0.70;;
51190;SDS011;37253;48.736;9.294;2023-08-31T05:27:15;1.13;;;0.90;;
51190;SDS011;37253;48.736;9.294;2023-08-31T05:29:15;1.77;;;0.80;;
51190;SDS011;37253;48.736;9.294;2023-08-31T05:31:16;1.33;;;0.80;;
51190;SDS011;37253;48.736;9.294;2023-08-31T05:33:17;2.22;;;0.80;;
51190;SDS011;37253;48.736;9.294;2023-08-31T05:35:17;2.60;;;0.80;;
51190;SDS011;37253;48.736;9.294;2023-08-31T05:37:18;1.27;;;0.80;;
51190;SDS011;37253;48.736;9.294;2023-08-31T05:39:18;1.00;;;0.68;;
51190;SDS011;37253;48.736;9.294;2023-08-31T05:41:18;2.63;;;0.70;;
51190;SDS011;37253;48.736;9.294;2023-08-31T05:43:19;0.85;;;0.80;;
51190;SDS011;37253;48.736;9.294;2023-08-31T05:45:19;1.92;;;0.80;;
51190;SDS011;37253;48.736;9.294;2023-08-31T05:47:19;1.77;;;0.80;;
51190;SDS011;37253;48.736;9.294;2023-08-31T05:49:20;1.55;;;0.90;;
51190;SDS011;37253;48.736;9.294;2023-08-31T05:51:20;1.63;;;0.90;;
51190;SDS011;37253;48.736;9.294;2023-08-31T05:53:20;2.67;;;0.70;;
51190;SDS011;37253;48.736;9.294;2023-08-31T05:55:21;0.90;;;0.70;;
51190;SDS011;37253;48.736;9.294;2023-08-31T05:57:21;1.48;;;0.80;;
51190;SDS011;37253;48.736;9.294;2023-08-31T05:59:22;0.82;;;0.68;;
51190;SDS011;37253;48.736;9.294;2023-08-31T06:01:22;1.55;;;0.80;;
51190;SDS011;37253;48.736;9.294;2023-08-31T06:03:22;3.10;;;0.70;;
51190;SDS011;37253;48.736;9.294;2023-08-31T06:05:23;0.73;;;0.70;;
51190;SDS011;37253;48.736;9.294;2023-08-31T06:07:23;3.60;;;0.80;;
51190;SDS011;37253;48.736;9.294;2023-08-31T06:09:23;1.23;;;0.70;;
51190;SDS011;37253;48.736;9.294;2023-08-31T06:11:24;1.55;;;0.80;;
51190;SDS011;37253;48.736;9.294;2023-08-31T06:13:24;1.08;;;0.98;;
51190;SDS011;37253;48.736;9.294;2023-08-31T06:15:24;1.65;;;0.80;;
51190;SDS011;37253;48.736;9.294;2023-08-31T06:17:25;1.23;;;0.70;;
51190;SDS011;37253;48.736;9.294;2023-08-31T06:19:26;1.17;;;0.80;;
51190;SDS011;37253;48.736;9.294;2023-08-31T06:21:26;3.45;;;0.82;;
51190;SDS011;37253;48.736;9.294;2023-08-31T06:23:26;1.45;;;0.80;;
51190;SDS011;37253;48.736;9.294;2023-08-31T06:25:27;1.05;;;0.80;;
51190;SDS011;37253;48.736;9.294;2023-08-31T06:27:27;1.20;;;0.70;;
51190;SDS011;37253;48.736;9.294;2023-08-31T06:29:28;2.67;;;1.02;;
51190;SDS011;37253;48.736;9.294;2023-08-31T06:31:28;1.05;;;0.80;;
51190;SDS011;37253;48.736;9.294;2023-08-31T06:33:29;1.85;;;0.60;;
51190;SDS011;37253;48.736;9.294;2023-08-31T06:35:29;2.70;;;0.70;;
51190;SDS011;37253;48.736;9.294;2023-08-31T06:37:31;2.22;;;0.70;;
51190;SDS011;37253;48.736;9.294;2023-08-31T06:39:31;4.85;;;0.70;;
51190;SDS011;37253;48.736;9.294;2023-08-31T06:41:32;4.22;;;0.80;;
51190;SDS011;37253;48.736;9.294;2023-08-31T06:43:33;1.13;;;0.80;;
51190;SDS011;37253;48.736;9.294;2023-08-31T06:45:33;4.70;;;0.90;;
51190;SDS011;37253;48.736;9.294;2023-08-31T06:47:34;1.00;;;0.63;;
51190;SDS011;37253;48.736;9.294;2023-08-31T06:49:34;0.93;;;0.80;;
51190;SDS011;37253;48.736;9.294;2023-08-31T06:51:35;3.30;;;0.80;;
51190;SDS011;37253;48.736;9.294;2023-08-31T06:53:36;2.17;;;0.93;;
51190;SDS011;37253;48.736;9.294;2023-08-31T06:55:37;3.97;;;0.70;;
51190;SDS011;37253;48.736;9.294;2023-08-31T06:57:37;2.85;;;0.82;;
51190;SDS011;37253;48.736;9.294;2023-08-31T06:59:38;2.17;;;0.70;;
51190;SDS011;37253;48.736;9.294;2023-08-31T07:01:38;2.25;;;0.70;;
51190;SDS011;37253;48.736;9.294;2023-08-31T07:03:38;3.22;;;0.80;;
51190;SDS011;37253;48.736;9.294;2023-08-31T07:05:41;0.98;;;0.90;;
51190;SDS011;37253;48.736;9.294;2023-08-31T07:07:42;1.45;;;0.70;;
51190;SDS011;37253;48.736;9.294;2023-08-31T07:09:43;1.42;;;0.80;;
51190;SDS011;37253;48.736;9.294;2023-08-31T07:11:44;1.02;;;0.70;;
51190;SDS011;37253;48.736;9.294;2023-08-31T07:13:44;1.13;;;0.57;;
51190;SDS011;37253;48.736;9.294;2023-08-31T07:15:44;1.17;;;0.85;;
51190;SDS011;37253;48.736;9.294;2023-08-31T07:17:45;1.38;;;0.80;;
51190;SDS011;37253;48.736;9.294;2023-08-31T07:19:45;1.13;;;0.80;;
51190;SDS011;37253;48.736;9.294;2023-08-31T07:21:46;2.05;;;0.70;;
51190;SDS011;37253;48.736;9.294;2023-08-31T07:23:47;0.70;;;0.60;;
51190;SDS011;37253;48.736;9.294;2023-08-31T07:25:48;2.17;;;0.82;;
51190;SDS011;37253;48.736;9.294;2023-08-31T07:27:49;4.43;;;0.80;;
51190;SDS011;37253;48.736;9.294;2023-08-31T07:29:49;2.80;;;0.95;;
51190;SDS011;37253;48.736;9.294;2023-08-31T07:31:49;1.55;;;0.70;;
51190;SDS011;37253;48.736;9.294;2023-08-31T07:33:50;1.23;;;0.80;;
51190;SDS011;37253;48.736;9.294;2023-08-31T07:35:50;7.63;;;0.90;;
51190;SDS011;37253;48.736;9.294;2023-08-31T07:37:50;9.40;;;1.05;;
51190;SDS011;37253;48.736;9.294;2023-08-31T07:39:50;11.40;;;0.85;;
51190;SDS011;37253;48.736;9.294;2023-08-31T07:41:52;6.03;;;1.10;;
51190;SDS011;37253;48.736;9.294;2023-08-31T07:45:55;2.75;;;0.82;;
51190;SDS011;37253;48.736;9.294;2023-08-31T07:47:55;3.90;;;0.90;;
51190;SDS011;37253;48.736;9.294;2023-08-31T07:49:56;2.33;;;0.93;;
51190;SDS011;37253;48.736;9.294;2023-08-31T07:51:56;5.78;;;1.05;;
51190;SDS011;37253;48.736;9.294;2023-08-31T07:53:56;8.73;;;0.95;;
51190;SDS011;37253;48.736;9.294;2023-08-31T07:55:57;5.13;;;0.90;;
51190;SDS011;37253;48.736;9.294;2023-08-31T07:57:57;3.67;;;0.82;;
51190;SDS011;37253;48.736;9.294;2023-08-31T07:59:57;2.80;;;0.70;;
51190;SDS011;37253;48.736;9.294;2023-08-31T08:01:58;5.93;;;1.13;;
51190;SDS011;37253;48.736;9.294;2023-08-31T08:03:58;2.42;;;1.00;;
51190;SDS011;37253;48.736;9.294;2023-08-31T08:05:59;5.25;;;0.73;;
51190;SDS011;37253;48.736;9.294;2023-08-31T08:07:59;2.35;;;0.93;;
51190;SDS011;37253;48.736;9.294;2023-08-31T08:09:59;2.40;;;0.80;;
51190;SDS011;37253;48.736;9.294;2023-08-31T08:12:00;3.50;;;0.80;;
51190;SDS011;37253;48.736;9.294;2023-08-31T08:14:01;2.25;;;0.70;;
51190;SDS011;37253;48.736;9.294;2023-08-31T08:16:01;2.17;;;0.90;;
51190;SDS011;37253;48.736;9.294;2023-08-31T08:18:01;3.85;;;1.00;;
51190;SDS011;37253;48.736;9.294;2023-08-31T08:20:02;1.40;;;0.80;;
51190;SDS011;37253;48.736;9.294;2023-08-31T08:22:03;4.40;;;0.90;;
51190;SDS011;37253;48.736;9.294;2023-08-31T08:24:04;1.48;;;0.70;;
51190;SDS011;37253;48.736;9.294;2023-08-31T08:26:04;1.50;;;0.77;;
51190;SDS011;37253;48.736;9.294;2023-08-31T08:28:04;4.60;;;0.90;;
51190;SDS011;37253;48.736;9.294;2023-08-31T08:30:05;0.95;;;0.60;;
51190;SDS011;37253;48.736;9.294;2023-08-31T08:32:06;4.22;;;1.13;;
51190;SDS011;37253;48.736;9.294;2023-08-31T08:34:08;2.22;;;0.77;;
51190;SDS011;37253;48.736;9.294;2023-08-31T08:36:09;1.17;;;0.68;;
51190;SDS011;37253;48.736;9.294;2023-08-31T08:38:09;2.08;;;0.65;;
51190;SDS011;37253;48.736;9.294;2023-08-31T08:40:09;3.38;;;0.85;;
51190;SDS011;37253;48.736;9.294;2023-08-31T08:42:10;4.93;;;0.80;;
51190;SDS011;37253;48.736;9.294;2023-08-31T08:44:10;4.00;;;0.82;;
51190;SDS011;37253;48.736;9.294;2023-08-31T08:46:14;1.00;;;0.60;;
51190;SDS011;37253;48.736;9.294;2023-08-31T08:48:14;3.92;;;0.70;;
51190;SDS011;37253;48.736;9.294;2023-08-31T08:50:15;1.58;;;0.70;;
51190;SDS011;37253;48.736;9.294;2023-08-31T08:52:15;1.00;;;0.70;;
51190;SDS011;37253;48.736;9.294;2023-08-31T08:54:16;1.10;;;0.70;;
51190;SDS011;37253;48.736;9.294;2023-08-31T08:56:18;1.00;;;0.70;;
51190;SDS011;37253;48.736;9.294;2023-08-31T08:58:18;2.03;;;0.88;;
51190;SDS011;37253;48.736;9.294;2023-08-31T09:00:19;1.75;;;0.75;;
51190;SDS011;37253;48.736;9.294;2023-08-31T09:02:19;1.85;;;0.90;;
51190;SDS011;37253;48.736;9.294;2023-08-31T09:04:19;2.00;;;0.85;;
51190;SDS011;37253;48.736;9.294;2023-08-31T09:06:20;2.03;;;0.90;;
51190;SDS011;37253;48.736;9.294;2023-08-31T09:08:27;2.75;;;0.90;;
51190;SDS011;37253;48.736;9.294;2023-08-31T09:10:44;2.25;;;1.00;;
51190;SDS011;37253;48.736;9.294;2023-08-31T09:12:45;3.53;;;1.00;;
51190;SDS011;37253;48.736;9.294;2023-08-31T09:14:56;2.67;;;1.10;;
51190;SDS011;37253;48.736;9.294;2023-08-31T09:17:00;3.15;;;0.88;;
51190;SDS011;37253;48.736;9.294;2023-08-31T09:19:00;3.22;;;1.00;;
51190;SDS011;37253;48.736;9.294;2023-08-31T09:21:18;2.95;;;1.13;;
51190;SDS011;37253;48.736;9.294;2023-08-31T09:23:20;3.03;;;1.20;;
51190;SDS011;37253;48.736;9.294;2023-08-31T09:25:20;2.20;;;1.05;;
51190;SDS011;37253;48.736;9.294;2023-08-31T09:27:20;6.43;;;0.90;;
51190;SDS011;37253;48.736;9.294;2023-08-31T09:29:23;2.25;;;1.10;;
51190;SDS011;37253;48.736;9.294;2023-08-31T09:31:23;1.77;;;1.00;;
51190;SDS011;37253;48.736;9.294;2023-08-31T09:33:29;3.25;;;1.15;;
51190;SDS011;37253;48.736;9.294;2023-08-31T09:35:30;2.88;;;1.00;;
51190;SDS011;37253;48.736;9.294;2023-08-31T09:37:30;2.53;;;1.20;;
51190;SDS011;37253;48.736;9.294;2023-08-31T09:39:37;3.58;;;1.20;;
51190;SDS011;37253;48.736;9.294;2023-08-31T09:41:54;9.10;;;1.42;;
51190;SDS011;37253;48.736;9.294;2023-08-31T09:43:55;2.10;;;1.02;;
51190;SDS011;37253;48.736;9.294;2023-08-31T09:45:55;5.75;;;1.10;;
51190;SDS011;37253;48.736;9.294;2023-08-31T09:47:56;3.10;;;1.20;;
51190;SDS011;37253;48.736;9.294;2023-08-31T09:49:57;2.50;;;1.08;;
51190;SDS011;37253;48.736;9.294;2023-08-31T09:51:58;3.10;;;1.30;;
51190;SDS011;37253;48.736;9.294;2023-08-31T09:54:03;3.78;;;1.27;;
51190;SDS011;37253;48.736;9.294;2023-08-31T09:56:06;5.10;;;1.40;;
51190;SDS011;37253;48.736;9.294;2023-08-31T09:58:07;2.80;;;1.20;;
51190;SDS011;37253;48.736;9.294;2023-08-31T10:00:09;2.17;;;1.10;;
51190;SDS011;37253;48.736;9.294;2023-08-31T10:02:10;2.22;;;1.05;;
51190;SDS011;37253;48.736;9.294;2023-08-31T10:04:11;3.95;;;1.50;;
51190;SDS011;37253;48.736;9.294;2023-08-31T10:06:12;2.40;;;1.27;;
51190;SDS011;37253;48.736;9.294;2023-08-31T10:08:12;3.63;;;1.27;;
51190;SDS011;37253;48.736;9.294;2023-08-31T10:10:14;1.88;;;1.20;;
51190;SDS011;37253;48.736;9.294;2023-08-31T10:12:15;3.10;;;1.15;;
51190;SDS011;37253;48.736;9.294;2023-08-31T10:14:15;2.30;;;1.10;;
51190;SDS011;37253;48.736;9.294;2023-08-31T10:16:17;2.95;;;1.20;;
51190;SDS011;37253;48.736;9.294;2023-08-31T10:18:19;1.50;;;0.90;;
51190;SDS011;37253;48.736;9.294;2023-08-31T10:20:19;2.35;;;1.08;;
51190;SDS011;37253;48.736;9.294;2023-08-31T10:22:20;4.13;;;1.08;;
51190;SDS011;37253;48.736;9.294;2023-08-31T10:24:41;2.10;;;1.00;;
51190;SDS011;37253;48.736;9.294;2023-08-31T10:27:16;2.67;;;1.35;;
51190;SDS011;37253;48.736;9.294;2023-08-31T10:29:27;3.45;;;1.30;;
51190;SDS011;37253;48.736;9.294;2023-08-31T10:31:28;2.72;;;1.23;;
51190;SDS011;37253;48.736;9.294;2023-08-31T10:33:42;1.88;;;1.10;;
51190;SDS011;37253;48.736;9.294;2023-08-31T10:35:54;1.42;;;1.00;;
51190;SDS011;37253;48.736;9.294;2023-08-31T10:38:12;2.75;;;1.10;;
51190;SDS011;37253;48.736;9.294;2023-08-31T10:40:32;3.30;;;1.33;;
51190;SDS011;37253;48.736;9.294;2023-08-31T10:42:32;3.83;;;1.33;;
51190;SDS011;37253;48.736;9.294;2023-08-31T10:44:33;2.25;;;1.30;;
51190;SDS011;37253;48.736;9.294;2023-08-31T10:46:34;2.70;;;1.38;;
51190;SDS011;37253;48.736;9.294;2023-08-31T10:48:51;5.32;;;1.17;;
51190;SDS011;37253;48.736;9.294;2023-08-31T10:50:52;5.07;;;1.27;;
51190;SDS011;37253;48.736;9.294;2023-08-31T10:52:53;2.70;;;1.20;;
51190;SDS011;37253;48.736;9.294;2023-08-31T10:54:54;3.03;;;1.30;;
51190;SDS011;37253;48.736;9.294;2023-08-31T10:59:00;5.43;;;1.40;;
51190;SDS011;37253;48.736;9.294;2023-08-31T11:01:01;8.70;;;1.45;;
51190;SDS011;37253;48.736;9.294;2023-08-31T11:03:02;2.72;;;1.40;;
51190;SDS011;37253;48.736;9.294;2023-08-31T11:05:11;2.67;;;1.20;;
51190;SDS011;37253;48.736;9.294;2023-08-31T11:07:18;4.85;;;1.25;;
51190;SDS011;37253;48.736;9.294;2023-08-31T11:09:20;3.35;;;1.30;;
51190;SDS011;37253;48.736;9.294;2023-08-31T11:11:21;3.08;;;0.90;;
51190;SDS011;37253;48.736;9.294;2023-08-31T11:13:23;2.80;;;1.25;;
51190;SDS011;37253;48.736;9.294;2023-08-31T11:15:24;2.85;;;1.30;;
51190;SDS011;37253;48.736;9.294;2023-08-31T11:17:30;2.72;;;1.10;;
51190;SDS011;37253;48.736;9.294;2023-08-31T11:19:33;1.95;;;1.10;;
51190;SDS011;37253;48.736;9.294;2023-08-31T11:21:35;1.95;;;1.20;;
51190;SDS011;37253;48.736;9.294;2023-08-31T11:23:36;3.00;;;1.20;;
51190;SDS011;37253;48.736;9.294;2023-08-31T11:25:37;2.50;;;1.20;;
51190;SDS011;37253;48.736;9.294;2023-08-31T11:27:37;1.70;;;1.30;;
51190;SDS011;37253;48.736;9.294;2023-08-31T11:29:38;2.35;;;1.42;;
51190;SDS011;37253;48.736;9.294;2023-08-31T11:31:44;2.00;;;1.10;;
51190;SDS011;37253;48.736;9.294;2023-08-31T11:33:46;3.95;;;1.20;;
51190;SDS011;37253;48.736;9.294;2023-08-31T11:35:47;8.70;;;1.95;;
51190;SDS011;37253;48.736;9.294;2023-08-31T11:37:51;5.30;;;1.10;;
51190;SDS011;37253;48.736;9.294;2023-08-31T11:39:52;4.75;;;1.38;;
51190;SDS011;37253;48.736;9.294;2023-08-31T11:41:53;2.92;;;1.10;;
51190;SDS011;37253;48.736;9.294;2023-08-31T11:43:54;2.20;;;1.00;;
51190;SDS011;37253;48.736;9.294;2023-08-31T11:45:55;3.15;;;1.30;;
51190;SDS011;37253;48.736;9.294;2023-08-31T11:47:55;1.48;;;1.10;;
51190;SDS011;37253;48.736;9.294;2023-08-31T11:49:56;2.28;;;1.17;;
51190;SDS011;37253;48.736;9.294;2023-08-31T11:51:56;2.78;;;1.15;;
51190;SDS011;37253;48.736;9.294;2023-08-31T11:53:57;1.30;;;1.10;;
51190;SDS011;37253;48.736;9.294;2023-08-31T11:56:01;1.93;;;1.20;;
51190;SDS011;37253;48.736;9.294;2023-08-31T11:58:02;4.53;;;1.13;;
51190;SDS011;37253;48.736;9.294;2023-08-31T12:00:04;3.28;;;1.23;;
51190;SDS011;37253;48.736;9.294;2023-08-31T12:02:06;3.72;;;1.30;;
51190;SDS011;37253;48.736;9.294;2023-08-31T12:04:14;13.27;;;1.20;;
51190;SDS011;37253;48.736;9.294;2023-08-31T12:06:22;2.63;;;1.13;;
51190;SDS011;37253;48.736;9.294;2023-08-31T12:08:26;2.83;;;1.23;;
51190;SDS011;37253;48.736;9.294;2023-08-31T12:10:26;1.83;;;1.30;;
51190;SDS011;37253;48.736;9.294;2023-08-31T12:12:27;3.03;;;1.20;;
51190;SDS011;37253;48.736;9.294;2023-08-31T12:14:28;3.72;;;1.25;;
51190;SDS011;37253;48.736;9.294;2023-08-31T12:16:35;2.45;;;1.23;;
51190;SDS011;37253;48.736;9.294;2023-08-31T12:18:37;5.20;;;1.40;;
51190;SDS011;37253;48.736;9.294;2023-08-31T12:20:44;1.95;;;1.10;;
51190;SDS011;37253;48.736;9.294;2023-08-31T12:22:48;4.78;;;1.38;;